createdAt,value
2023-01-29T00:00:09.999Z,-0.90
2023-01-29T00:02:37.653Z,-0.90
2023-01-29T00:05:21.000Z,-0.80
2023-01-29T00:07:53.355Z,-0.80
2023-01-29T00:10:19.971Z,-0.80
2023-01-29T00:12:46.542Z,-0.80
2023-01-29T00:15:13.113Z,-0.70
2023-01-29T00:17:41.390Z,-0.70
2023-01-29T00:20:08.995Z,-0.70
2023-01-29T00:22:36.570Z,-0.70
2023-01-29T00:25:03.614Z,-0.80
2023-01-29T00:27:32.040Z,-0.80
2023-01-29T00:30:12.840Z,-0.80
2023-01-29T00:32:40.719Z,-0.80
2023-01-29T00:35:08.584Z,-0.80
2023-01-29T00:37:35.539Z,-0.80
2023-01-29T00:40:02.185Z,-0.80
2023-01-29T00:42:47.495Z,-0.80
2023-01-29T00:45:14.495Z,-0.90
2023-01-29T00:47:41.094Z,-0.90
2023-01-29T00:50:11.152Z,-0.80
2023-01-29T00:52:38.388Z,-0.80
2023-01-29T00:55:06.141Z,-0.80
2023-01-29T00:57:37.034Z,-0.80
2023-01-29T01:00:07.814Z,-0.70
2023-01-29T01:02:53.301Z,-0.70
2023-01-29T01:05:20.397Z,-0.70
2023-01-29T01:07:57.091Z,-0.70
2023-01-29T01:10:28.849Z,-0.70
2023-01-29T01:13:02.735Z,-0.80
2023-01-29T01:15:36.393Z,-0.80
2023-01-29T01:18:04.996Z,-0.90
2023-01-29T01:20:35.000Z,-0.80
2023-01-29T01:23:02.671Z,-0.60
2023-01-29T01:25:29.304Z,-0.60
2023-01-29T01:30:26.390Z,-0.60
2023-01-29T01:32:53.681Z,-0.70
2023-01-29T01:35:20.348Z,-0.80
2023-01-29T01:37:46.909Z,-0.80
2023-01-29T01:40:18.981Z,-0.80
2023-01-29T01:42:56.329Z,-0.80
2023-01-29T01:45:25.797Z,-0.80
2023-01-29T01:48:14.356Z,-0.80
2023-01-29T01:51:05.675Z,-0.80
2023-01-29T01:53:41.919Z,-0.80
2023-01-29T01:56:16.726Z,-0.80
2023-01-29T01:58:52.184Z,-0.80
2023-01-29T02:01:26.317Z,-0.80
2023-01-29T02:04:26.703Z,-0.90
2023-01-29T02:07:13.306Z,-0.90
2023-01-29T02:09:47.658Z,-0.90
2023-01-29T02:12:16.918Z,-1.00
2023-01-29T02:14:44.415Z,-1.00
2023-01-29T02:17:16.893Z,-1.10
2023-01-29T02:20:27.252Z,-1.10
2023-01-29T02:23:27.046Z,-1.10
2023-01-29T02:26:10.799Z,-1.20
2023-01-29T02:28:45.348Z,-1.20
2023-01-29T02:31:40.107Z,-1.20
2023-01-29T02:34:25.908Z,-1.30
2023-01-29T02:37:09.415Z,-1.40
2023-01-29T02:40:07.953Z,-1.50
2023-01-29T02:42:54.123Z,-1.50
2023-01-29T02:45:48.198Z,-1.60
2023-01-29T02:48:22.571Z,-1.60
2023-01-29T02:51:10.958Z,-1.70
2023-01-29T02:54:02.763Z,-1.80
2023-01-29T02:56:54.360Z,-1.90
2023-01-29T02:59:35.461Z,-1.90
2023-01-29T03:02:19.109Z,-2.00
2023-01-29T03:04:53.821Z,-2.00
2023-01-29T03:07:44.569Z,-2.00
2023-01-29T03:10:31.002Z,-2.10
2023-01-29T03:13:15.146Z,-2.20
2023-01-29T03:16:16.009Z,-2.20
2023-01-29T03:18:57.382Z,-2.30
2023-01-29T03:21:59.859Z,-2.30
2023-01-29T03:24:58.677Z,-2.40
2023-01-29T03:27:51.742Z,-2.40
2023-01-29T03:30:38.609Z,-2.50
2023-01-29T03:33:10.152Z,-2.50
2023-01-29T03:35:44.673Z,-2.50
2023-01-29T03:38:11.822Z,-2.50
2023-01-29T03:41:12.619Z,-2.60
2023-01-29T03:43:55.057Z,-2.70
2023-01-29T03:46:40.766Z,-2.70
2023-01-29T03:49:21.851Z,-2.70
2023-01-29T03:52:13.890Z,-2.80
2023-01-29T03:55:01.011Z,-2.80
2023-01-29T03:58:32.102Z,-2.70
2023-01-29T04:01:04.859Z,-2.70
2023-01-29T04:03:38.369Z,-2.80
2023-01-29T04:06:21.251Z,-2.80
2023-01-29T04:09:10.797Z,-2.80
2023-01-29T04:11:43.294Z,-2.90
2023-01-29T04:14:10.034Z,-2.90
2023-01-29T04:16:42.172Z,-3.00
2023-01-29T04:19:08.839Z,-3.00
2023-01-29T04:21:37.483Z,-3.00
2023-01-29T04:24:06.450Z,-3.00
2023-01-29T04:27:21.542Z,-3.10
2023-01-29T04:30:11.828Z,-3.10
2023-01-29T04:33:11.367Z,-3.10
2023-01-29T04:36:29.438Z,-3.20
2023-01-29T04:39:22.300Z,-3.20
2023-01-29T04:42:05.794Z,-3.30
2023-01-29T04:44:49.765Z,-3.30
2023-01-29T04:47:44.883Z,-3.30
2023-01-29T04:50:44.257Z,-3.30
2023-01-29T04:53:32.127Z,-3.20
2023-01-29T04:56:18.767Z,-3.20
2023-01-29T04:58:55.813Z,-2.70
2023-01-29T05:01:29.627Z,-3.30
2023-01-29T05:03:57.172Z,-3.30
2023-01-29T05:06:25.226Z,-3.30
2023-01-29T05:08:53.602Z,-3.30
2023-01-29T05:11:20.953Z,-3.30
2023-01-29T05:13:53.915Z,-3.40
2023-01-29T05:16:27.086Z,-3.40
2023-01-29T05:18:54.050Z,-3.40
2023-01-29T05:21:22.983Z,-3.50
2023-01-29T05:24:12.639Z,-3.50
2023-01-29T05:26:58.398Z,-3.50
2023-01-29T05:29:24.980Z,-3.50
2023-01-29T05:31:53.696Z,-3.50
2023-01-29T05:34:20.647Z,-3.50
2023-01-29T05:36:47.210Z,-3.50
2023-01-29T05:39:13.980Z,-3.50
2023-01-29T05:41:40.773Z,-3.50
2023-01-29T05:44:07.431Z,-3.50
2023-01-29T05:46:34.105Z,-3.50
2023-01-29T05:49:00.727Z,-3.50
2023-01-29T05:51:32.000Z,-3.40
2023-01-29T05:54:01.495Z,-3.40
2023-01-29T05:56:28.121Z,-3.40
2023-01-29T05:58:55.423Z,-3.40
2023-01-29T06:01:25.401Z,-3.40
2023-01-29T06:03:52.184Z,-3.30
2023-01-29T06:06:18.938Z,-3.40
2023-01-29T06:08:45.804Z,-3.40
2023-01-29T06:11:14.487Z,-3.40
2023-01-29T06:13:41.251Z,-3.40
2023-01-29T06:16:09.446Z,-3.40
2023-01-29T06:18:40.366Z,-3.50
2023-01-29T06:21:11.949Z,-3.50
2023-01-29T06:23:38.990Z,-3.50
2023-01-29T06:26:13.275Z,-3.50
2023-01-29T06:28:40.179Z,-3.60
2023-01-29T06:31:26.574Z,-3.60
2023-01-29T06:33:54.969Z,-3.60
2023-01-29T06:36:31.657Z,-3.50
2023-01-29T06:38:58.241Z,-3.50
2023-01-29T06:41:25.503Z,-3.50
2023-01-29T06:43:52.951Z,-3.50
2023-01-29T06:46:19.989Z,-3.50
2023-01-29T06:48:46.693Z,-3.50
2023-01-29T06:51:13.344Z,-3.50
2023-01-29T06:53:43.360Z,-3.50
2023-01-29T06:56:11.245Z,-3.50
2023-01-29T06:58:38.501Z,-3.50
2023-01-29T07:01:15.494Z,-3.50
2023-01-29T07:03:52.340Z,-3.50
2023-01-29T07:06:19.564Z,-3.50
2023-01-29T07:08:46.446Z,-3.50
2023-01-29T07:11:13.075Z,-3.50
2023-01-29T07:13:39.742Z,-3.50
2023-01-29T07:16:07.401Z,-3.50
2023-01-29T07:18:34.028Z,-3.50
2023-01-29T07:21:06.372Z,-3.50
2023-01-29T07:23:34.769Z,-3.50
2023-01-29T07:26:04.580Z,-3.50
2023-01-29T07:28:31.211Z,-3.50
2023-01-29T07:31:00.771Z,-3.50
2023-01-29T07:33:27.464Z,-3.40
2023-01-29T07:35:54.025Z,-3.50
2023-01-29T07:38:20.828Z,-3.40
2023-01-29T07:40:47.875Z,-3.50
2023-01-29T07:43:14.882Z,-3.40
2023-01-29T07:45:41.584Z,-3.30
2023-01-29T07:48:12.102Z,-3.20
2023-01-29T07:50:39.769Z,-3.20
2023-01-29T07:53:06.434Z,-3.20
2023-01-29T07:55:33.732Z,-3.20
2023-01-29T07:58:02.992Z,-3.00
2023-01-29T08:00:31.199Z,-3.00
2023-01-29T08:03:07.344Z,-2.90
2023-01-29T08:05:34.241Z,-2.80
2023-01-29T08:08:06.858Z,-2.80
2023-01-29T08:10:35.827Z,-2.80
2023-01-29T08:13:04.368Z,-2.80
2023-01-29T08:15:32.030Z,-2.70
2023-01-29T08:17:58.855Z,-2.60
2023-01-29T08:20:26.025Z,-2.40
2023-01-29T08:23:21.985Z,-2.20
2023-01-29T08:25:48.573Z,-1.80
2023-01-29T08:28:15.240Z,-1.70
2023-01-29T08:30:41.964Z,-1.50
2023-01-29T08:33:08.639Z,-1.40
2023-01-29T08:35:35.415Z,-1.20
2023-01-29T08:38:04.788Z,-1.10
2023-01-29T08:40:34.464Z,-1.00
2023-01-29T08:43:05.491Z,-0.90
2023-01-29T08:45:40.173Z,-0.90
2023-01-29T08:48:08.041Z,-0.80
2023-01-29T08:50:38.052Z,-0.70
2023-01-29T08:53:14.722Z,-0.60
2023-01-29T08:55:42.193Z,-0.50
2023-01-29T08:58:11.535Z,-0.40
2023-01-29T09:00:38.920Z,-0.40
2023-01-29T09:03:07.598Z,-0.50
2023-01-29T09:05:39.168Z,-0.50
2023-01-29T09:08:15.853Z,-0.50
2023-01-29T09:10:42.465Z,-0.50
2023-01-29T09:13:09.074Z,-0.40
2023-01-29T09:15:35.631Z,-0.30
2023-01-29T09:18:05.859Z,-0.30
2023-01-29T09:20:33.234Z,-0.40
2023-01-29T09:23:08.030Z,-0.40
2023-01-29T09:25:35.494Z,-0.40
2023-01-29T09:28:02.136Z,-0.40
2023-01-29T09:30:29.567Z,-0.40
2023-01-29T09:32:56.166Z,-0.40
2023-01-29T09:35:25.726Z,-0.30
2023-01-29T09:38:01.053Z,-0.40
2023-01-29T09:40:51.572Z,-0.30
2023-01-29T09:43:48.246Z,-0.40
2023-01-29T09:46:23.853Z,-0.30
2023-01-29T09:49:01.933Z,-0.10
2023-01-29T09:51:35.501Z,-0.10
2023-01-29T09:54:27.376Z,0.00
2023-01-29T09:56:57.114Z,0.00
2023-01-29T09:59:27.292Z,0.20
2023-01-29T10:02:16.012Z,0.10
2023-01-29T10:05:24.727Z,0.20
2023-01-29T10:08:29.541Z,0.20
2023-01-29T10:11:42.509Z,0.10
2023-01-29T10:14:44.287Z,0.20
2023-01-29T10:17:42.405Z,0.40
2023-01-29T10:20:30.559Z,0.50
2023-01-29T10:23:19.071Z,0.70
2023-01-29T10:25:47.243Z,0.90
2023-01-29T10:28:24.355Z,1.10
2023-01-29T10:31:00.593Z,1.30
2023-01-29T10:34:03.351Z,1.40
2023-01-29T10:36:44.752Z,1.20
2023-01-29T10:39:23.416Z,1.20
2023-01-29T10:42:00.669Z,1.40
2023-01-29T10:44:54.852Z,1.50
2023-01-29T10:48:04.736Z,1.40
2023-01-29T10:51:18.598Z,1.20
2023-01-29T10:54:21.490Z,1.20
2023-01-29T10:57:16.934Z,1.40
2023-01-29T10:59:55.468Z,1.50
2023-01-29T11:02:22.579Z,1.60
2023-01-29T11:04:49.356Z,1.50
2023-01-29T11:07:19.676Z,1.60
2023-01-29T11:09:57.742Z,1.80
2023-01-29T11:12:30.567Z,2.00
2023-01-29T11:15:22.580Z,2.00
2023-01-29T11:18:03.647Z,2.20
2023-01-29T11:20:32.076Z,2.20
2023-01-29T11:23:00.187Z,2.10
2023-01-29T11:25:28.770Z,2.20
2023-01-29T11:28:01.818Z,2.10
2023-01-29T11:30:34.170Z,2.10
2023-01-29T11:33:20.608Z,2.00
2023-01-29T11:35:47.425Z,2.00
2023-01-29T11:38:21.007Z,2.00
2023-01-29T11:40:48.633Z,2.00
2023-01-29T11:43:32.478Z,2.10
2023-01-29T11:46:12.302Z,2.00
2023-01-29T11:48:48.778Z,1.90
2023-01-29T11:51:28.353Z,1.90
2023-01-29T11:54:05.930Z,1.80
2023-01-29T11:56:42.821Z,1.70
2023-01-29T11:59:40.458Z,1.80
2023-01-29T12:02:27.903Z,1.80
2023-01-29T12:04:58.309Z,1.70
2023-01-29T12:07:25.356Z,1.70
2023-01-29T12:09:58.597Z,1.70
2023-01-29T12:12:35.633Z,1.80
2023-01-29T12:15:19.546Z,1.80
2023-01-29T12:18:06.276Z,1.80
2023-01-29T12:21:01.170Z,1.80
2023-01-29T12:23:41.925Z,1.60
2023-01-29T12:26:41.061Z,1.60
2023-01-29T12:29:33.600Z,1.80
2023-01-29T12:32:39.791Z,2.00
2023-01-29T12:35:36.571Z,1.80
2023-01-29T12:38:18.042Z,1.80
2023-01-29T12:40:55.195Z,1.40
2023-01-29T12:43:44.446Z,1.40
2023-01-29T12:46:32.883Z,1.40
2023-01-29T12:49:04.912Z,1.30
2023-01-29T12:51:40.871Z,1.30
2023-01-29T12:54:13.245Z,1.20
2023-01-29T12:56:47.059Z,1.20
2023-01-29T12:59:30.386Z,1.10
2023-01-29T13:02:09.767Z,1.10
2023-01-29T13:04:48.490Z,1.10
2023-01-29T13:07:27.337Z,1.20
2023-01-29T13:10:07.460Z,1.20
2023-01-29T13:12:35.862Z,1.10
2023-01-29T13:15:28.825Z,1.10
2023-01-29T13:18:37.976Z,1.20
2023-01-29T13:21:05.665Z,1.30
2023-01-29T13:23:38.093Z,1.40
2023-01-29T13:26:05.844Z,1.50
2023-01-29T13:28:33.539Z,1.50
2023-01-29T13:31:20.859Z,1.50
2023-01-29T13:34:11.532Z,1.40
2023-01-29T13:36:44.371Z,1.40
2023-01-29T13:39:44.492Z,1.40
2023-01-29T13:42:25.148Z,1.40
2023-01-29T13:44:55.922Z,1.40
2023-01-29T13:47:32.039Z,1.50
2023-01-29T13:50:07.942Z,1.50
2023-01-29T13:53:03.811Z,1.40
2023-01-29T13:55:39.834Z,1.40
2023-01-29T13:58:13.887Z,1.40
2023-01-29T14:00:40.412Z,1.40
2023-01-29T14:03:14.397Z,1.40
2023-01-29T14:05:43.546Z,1.40
2023-01-29T14:08:12.849Z,1.40
2023-01-29T14:10:43.476Z,1.40
2023-01-29T14:13:27.681Z,1.40
2023-01-29T14:15:57.157Z,1.40
2023-01-29T14:18:26.267Z,1.40
2023-01-29T14:21:16.185Z,1.30
2023-01-29T14:23:52.697Z,1.30
2023-01-29T14:26:43.487Z,1.30
2023-01-29T14:29:16.464Z,1.20
2023-01-29T14:31:59.937Z,1.20
2023-01-29T14:34:44.896Z,1.20
2023-01-29T14:37:19.434Z,1.20
2023-01-29T14:39:51.441Z,1.10
2023-01-29T14:42:26.931Z,1.10
2023-01-29T14:45:07.258Z,1.00
2023-01-29T14:47:33.793Z,1.00
2023-01-29T14:50:29.218Z,1.00
2023-01-29T14:53:27.872Z,1.00
2023-01-29T14:56:24.910Z,1.00
2023-01-29T14:58:59.113Z,1.00
2023-01-29T15:01:35.893Z,1.00
2023-01-29T15:04:31.805Z,0.90
2023-01-29T15:07:07.337Z,0.90
2023-01-29T15:09:46.322Z,0.90
2023-01-29T15:12:45.389Z,0.90
2023-01-29T15:15:33.939Z,0.80
2023-01-29T15:18:16.089Z,0.80
2023-01-29T15:20:43.976Z,0.80
2023-01-29T15:23:32.920Z,0.70
2023-01-29T15:26:03.172Z,0.70
2023-01-29T15:28:32.296Z,0.80
2023-01-29T15:31:04.076Z,0.70
2023-01-29T15:33:32.021Z,0.60
2023-01-29T15:36:07.996Z,0.50
2023-01-29T15:38:35.513Z,0.40
2023-01-29T15:41:15.736Z,0.40
2023-01-29T15:43:55.952Z,0.40
2023-01-29T15:46:34.124Z,0.30
2023-01-29T15:49:07.320Z,0.20
2023-01-29T15:51:34.790Z,0.20
2023-01-29T15:54:10.455Z,0.10
2023-01-29T15:56:50.624Z,0.10
2023-01-29T15:59:22.774Z,0.00
2023-01-29T16:01:49.433Z,0.00
2023-01-29T16:04:26.784Z,-0.10
2023-01-29T16:06:58.311Z,-0.20
2023-01-29T16:09:27.179Z,-0.20
2023-01-29T16:11:57.542Z,-0.30
2023-01-29T16:14:25.610Z,-0.30
2023-01-29T16:16:53.616Z,-0.40
2023-01-29T16:19:27.487Z,-0.40
2023-01-29T16:22:01.434Z,-0.40
2023-01-29T16:24:30.977Z,-0.50
2023-01-29T16:27:13.508Z,-0.60
2023-01-29T16:29:40.363Z,-0.60
2023-01-29T16:32:08.941Z,-0.60
2023-01-29T16:34:43.426Z,-0.30
2023-01-29T16:37:27.839Z,-0.80
2023-01-29T16:39:55.108Z,-0.90
2023-01-29T16:42:27.237Z,-1.00
2023-01-29T16:45:06.255Z,-1.00
2023-01-29T16:47:39.169Z,-1.10
2023-01-29T16:50:40.486Z,-1.20
2023-01-29T16:53:24.397Z,-1.20
2023-01-29T16:55:52.282Z,-1.30
2023-01-29T16:58:28.051Z,-1.30
2023-01-29T17:01:11.793Z,-1.40
2023-01-29T17:03:40.129Z,-1.40
2023-01-29T17:06:21.547Z,-1.50
2023-01-29T17:08:48.356Z,-1.40
2023-01-29T17:11:30.402Z,-1.50
2023-01-29T17:14:03.929Z,-1.50
2023-01-29T17:16:34.956Z,-1.60
2023-01-29T17:19:01.746Z,-1.60
2023-01-29T17:21:31.342Z,-1.60
2023-01-29T17:23:57.937Z,-1.60
2023-01-29T17:26:24.739Z,-1.60
2023-01-29T17:28:52.457Z,-1.60
2023-01-29T17:31:19.229Z,-1.60
2023-01-29T17:33:46.070Z,-1.60
2023-01-29T17:36:17.217Z,-1.70
2023-01-29T17:38:44.489Z,-1.80
2023-01-29T17:41:26.212Z,-1.80
2023-01-29T17:43:52.801Z,-1.80
2023-01-29T17:46:20.330Z,-1.90
2023-01-29T17:48:49.061Z,-1.90
2023-01-29T17:51:17.777Z,-1.90
2023-01-29T17:53:46.847Z,-1.90
2023-01-29T17:56:23.466Z,-2.00
2023-01-29T17:58:50.180Z,-2.00
2023-01-29T18:01:16.814Z,-2.00
2023-01-29T18:03:43.506Z,-2.10
2023-01-29T18:06:21.701Z,-2.10
2023-01-29T18:08:48.250Z,-2.20
2023-01-29T18:11:15.122Z,-2.20
2023-01-29T18:13:41.931Z,-2.30
2023-01-29T18:16:09.186Z,-2.30
2023-01-29T18:18:35.933Z,-2.30
2023-01-29T18:21:02.678Z,-2.30
2023-01-29T18:23:31.006Z,-2.40
2023-01-29T18:25:57.694Z,-2.40
2023-01-29T18:28:25.891Z,-2.40
2023-01-29T18:30:52.987Z,-2.40
2023-01-29T18:33:19.714Z,-2.40
2023-01-29T18:35:49.137Z,-2.40
2023-01-29T18:38:16.897Z,-2.50
2023-01-29T18:40:43.927Z,-2.50
2023-01-29T18:43:10.564Z,-2.60
2023-01-29T18:45:37.236Z,-2.60
2023-01-29T18:48:04.923Z,-2.60
2023-01-29T18:50:31.955Z,-2.60
2023-01-29T18:52:58.602Z,-2.70
2023-01-29T18:55:26.488Z,-2.70
2023-01-29T18:58:26.559Z,-2.70
2023-01-29T19:00:41.109Z,-2.70
2023-01-29T19:03:07.686Z,-2.70
2023-01-29T19:05:34.377Z,-2.80
2023-01-29T19:08:01.690Z,-2.90
2023-01-29T19:10:28.332Z,-2.90
2023-01-29T19:12:55.752Z,-3.00
2023-01-29T19:15:22.665Z,-3.00
2023-01-29T19:17:50.759Z,-2.50
2023-01-29T19:20:17.867Z,-3.00
2023-01-29T19:22:44.646Z,-3.00
2023-01-29T19:25:11.533Z,-3.00
2023-01-29T19:27:38.278Z,-3.10
2023-01-29T19:30:05.727Z,-3.10
2023-01-29T19:32:32.822Z,-3.10
2023-01-29T19:34:59.456Z,-3.10
2023-01-29T19:37:26.239Z,-3.20
2023-01-29T19:39:53.689Z,-3.20
2023-01-29T19:42:20.870Z,-3.20
2023-01-29T19:44:47.627Z,-3.20
2023-01-29T19:47:14.270Z,-3.20
2023-01-29T19:49:41.028Z,-3.20
2023-01-29T19:52:14.817Z,-3.20
2023-01-29T19:54:46.482Z,-3.10
2023-01-29T19:57:13.081Z,-3.20
2023-01-29T19:59:45.617Z,-3.10
2023-01-29T20:02:12.541Z,-3.10
2023-01-29T20:04:43.448Z,-3.00
2023-01-29T20:07:10.092Z,-3.00
2023-01-29T20:09:36.672Z,-3.00
2023-01-29T20:12:03.379Z,-2.90
2023-01-29T20:14:29.940Z,-2.80
2023-01-29T20:16:56.493Z,-2.90
2023-01-29T20:19:23.171Z,-2.90
2023-01-29T20:21:49.807Z,-2.80
2023-01-29T20:24:16.549Z,-2.80
2023-01-29T20:26:46.125Z,-2.70
2023-01-29T20:29:13.511Z,-2.70
2023-01-29T20:31:40.109Z,-2.70
2023-01-29T20:34:06.855Z,-2.80
2023-01-29T20:36:36.112Z,-2.80
2023-01-29T20:39:03.042Z,-2.80
2023-01-29T20:41:29.687Z,-2.80
2023-01-29T20:43:56.366Z,-2.70
2023-01-29T20:46:23.034Z,-2.60
2023-01-29T20:48:53.021Z,-2.60
2023-01-29T20:51:20.310Z,-2.60
2023-01-29T20:53:47.948Z,-2.50
2023-01-29T20:56:17.080Z,-2.40
2023-01-29T20:58:46.382Z,-2.20
2023-01-29T21:01:18.420Z,-2.30
2023-01-29T21:03:46.575Z,-2.20
2023-01-29T21:06:14.442Z,-2.10
2023-01-29T21:08:41.301Z,-2.00
2023-01-29T21:11:09.538Z,-1.90
2023-01-29T21:13:36.901Z,-1.80
2023-01-29T21:16:04.296Z,-1.80
2023-01-29T21:18:32.113Z,-1.70
2023-01-29T21:20:58.743Z,-1.60
2023-01-29T21:23:25.397Z,-1.60
2023-01-29T21:25:52.004Z,-1.50
2023-01-29T21:28:18.607Z,-1.50
2023-01-29T21:30:46.282Z,-1.50
2023-01-29T21:33:15.740Z,-1.40
2023-01-29T21:35:42.375Z,-1.30
2023-01-29T21:38:09.188Z,-1.30
2023-01-29T21:40:35.969Z,-1.30
2023-01-29T21:43:12.763Z,-1.20
2023-01-29T21:45:40.746Z,-1.20
2023-01-29T21:48:08.624Z,-1.20
2023-01-29T21:50:35.556Z,-1.10
2023-01-29T21:53:02.816Z,-1.10
2023-01-29T21:55:35.375Z,-1.10
2023-01-29T21:58:02.074Z,-1.10
2023-01-29T22:00:28.665Z,-1.00
2023-01-29T22:02:55.512Z,-1.00
2023-01-29T22:05:22.197Z,-0.90
2023-01-29T22:07:49.617Z,-0.80
2023-01-29T22:10:18.540Z,-0.70
2023-01-29T22:12:45.874Z,-0.70
2023-01-29T22:15:13.906Z,-0.70
2023-01-29T22:17:41.537Z,-0.70
2023-01-29T22:20:13.600Z,-0.70
2023-01-29T22:22:40.486Z,-0.70
2023-01-29T22:25:07.632Z,-0.60
2023-01-29T22:27:34.318Z,-0.60
2023-01-29T22:30:01.215Z,-0.70
2023-01-29T22:32:27.993Z,-0.60
2023-01-29T22:34:54.598Z,-0.60
2023-01-29T22:37:21.195Z,-0.50
2023-01-29T22:39:47.822Z,-0.30
2023-01-29T22:42:14.425Z,-0.30
2023-01-29T22:44:41.282Z,-0.40
2023-01-29T22:47:08.004Z,-0.40
2023-01-29T22:49:34.663Z,-0.30
2023-01-29T22:52:10.307Z,-0.30
2023-01-29T22:54:44.496Z,-0.30
2023-01-29T22:57:13.972Z,-0.20
2023-01-29T22:59:40.846Z,-0.30
2023-01-29T23:02:08.619Z,-0.30
2023-01-29T23:04:35.486Z,-0.30
2023-01-29T23:07:02.963Z,-0.30
2023-01-29T23:09:29.593Z,-0.30
2023-01-29T23:11:56.174Z,-0.30
2023-01-29T23:14:22.752Z,-0.30
2023-01-29T23:16:49.410Z,-0.30
2023-01-29T23:19:15.990Z,-0.30
2023-01-29T23:21:42.566Z,-0.30
2023-01-29T23:24:10.059Z,-0.30
2023-01-29T23:26:55.431Z,-0.30
2023-01-29T23:29:22.017Z,-0.40
2023-01-29T23:31:48.695Z,-0.30
2023-01-29T23:34:18.249Z,-0.30
2023-01-29T23:36:47.703Z,-0.30
2023-01-29T23:39:14.321Z,-0.30
2023-01-29T23:41:40.975Z,-0.30
2023-01-29T23:44:07.733Z,-0.30
2023-01-29T23:46:34.544Z,-0.20
2023-01-29T23:49:01.464Z,-0.20
2023-01-29T23:51:28.071Z,-0.20
2023-01-29T23:53:54.826Z,-0.20
2023-01-29T23:56:24.250Z,-0.10
2023-01-29T23:58:57.905Z,0.00
